Pride of Baltimore II — WUW2120 — position and weather

sailwx.info

Track history (hours):
 
Tides and Currents Weather Stations Pressure Air Temp Water Temp Dewpoint Dewpoint Depression Visibility Wind Speed Wind Dir Waves Ship Positions

Pride of Baltimore II (United States)

Reproduction of an 1812-era Baltimore Clipper privateer.

Ship's website: http://www.marylandspride.org/

Owner: PRIDE OF BALTIMORE INC, BALTIMORE, MD. More information available from US FCC via Universal Licensing System and Coast Guard Vessel Documentation Center.

Last reported at 2014-Oct-20 15:09 UTC. Time now 2014-Oct-21 00:41 UTC.
Position N 37°02' W 076°13'.

Type: Sailing vessel. MMSI: 303302000.

Date/timePositionNaut miles runAvg speedWind from/ knotsBaromVisibWave heightAir tempDewpointWater temp
2014-Oct-20 15:09N 37°02' W 076°13'5 7.6
2014-Oct-20 14:33N 36°60' W 076°18'5 5.1
2014-Oct-20 13:33N 36°55' W 076°20'  
2014-Oct-18 02:31N 36°50' W 076°18'6 0.8
2014-Oct-17 19:05N 36°55' W 076°20'4 7.1
2014-Oct-17 18:27N 36°60' W 076°19'6 6.9
2014-Oct-17 17:33N 37°00' W 076°11'3 2.5
2014-Oct-17 16:17N 37°03' W 076°10'2 2.1
2014-Oct-17 15:32N 37°04' W 076°11'6 4.7
2014-Oct-17 14:21N 37°10' W 076°11'6 7.5
2014-Oct-17 13:33N 37°16' W 076°11'30 7.4
2014-Oct-17 09:28N 37°46' W 076°11'8 8.3
2014-Oct-17 08:33N 37°54' W 076°11'8 8.0
2014-Oct-17 07:33N 38°01' W 076°14'8 7.9
2014-Oct-17 06:33N 38°09' W 076°17'22 7.4
2014-Oct-17 03:33N 38°31' W 076°24'5 4.6
2014-Oct-17 02:33N 38°35' W 076°25'3 3.1
2014-Oct-17 01:33N 38°38' W 076°26'0 0.2
2014-Oct-17 00:33N 38°38' W 076°26'1 1.2
2014-Oct-16 23:33N 38°39' W 076°26'3 2.8
2014-Oct-16 22:33N 38°42' W 076°26'3 3.0
2014-Oct-16 21:33N 38°45' W 076°27'3 3.3
2014-Oct-16 20:33N 38°48' W 076°27'3 2.9
2014-Oct-16 19:33N 38°51' W 076°26'5 4.0
2014-Oct-16 18:23N 38°56' W 076°25'3 3.5
2014-Oct-16 17:32N 38°59' W 076°25'0 0.5
2014-Oct-16 16:32N 38°58' W 076°25'6 5.6
2014-Oct-16 15:32N 39°04' W 076°23'6 6.3
2014-Oct-16 14:33N 39°09' W 076°25'6 6.4
2014-Oct-16 13:33N 39°13' W 076°32'4 1.7
2014-Oct-16 11:10N 39°17' W 076°35'0 0.0
2014-Oct-16 10:19N 39°17' W 076°35'0 0.0
2014-Oct-16 09:28N 39°17' W 076°35'0 0.0
2014-Oct-16 08:16N 39°17' W 076°35'0 0.0
2014-Oct-16 07:13N 39°17' W 076°35'0 0.0
2014-Oct-16 06:31N 39°17' W 076°35'0 0.0
2014-Oct-16 05:31N 39°17' W 076°35'0 0.0
2014-Oct-16 04:28N 39°17' W 076°35'0 0.0
2014-Oct-16 03:22N 39°17' W 076°35'0 0.0
2014-Oct-16 02:31N 39°17' W 076°35'0 0.0
2014-Oct-16 01:25N 39°17' W 076°35'0 0.0
2014-Oct-16 00:31N 39°17' W 076°35'0 0.0
2014-Oct-15 23:31N 39°17' W 076°35'0 0.0
2014-Oct-15 22:31N 39°17' W 076°35'0 0.0
2014-Oct-15 21:31N 39°17' W 076°35'0 0.0
2014-Oct-15 20:31N 39°17' W 076°35'0 0.0
2014-Oct-15 19:31N 39°17' W 076°35'0 0.0
2014-Oct-15 18:31N 39°17' W 076°35'0 0.0
2014-Oct-15 17:31N 39°17' W 076°35'0 0.0
2014-Oct-15 16:31N 39°17' W 076°35'0 0.0
2014-Oct-15 15:31N 39°17' W 076°35'0 0.0
2014-Oct-15 14:31N 39°17' W 076°35'0 0.0
2014-Oct-15 13:31N 39°17' W 076°35'0 0.0
2014-Oct-15 12:34N 39°17' W 076°35'0 0.0
2014-Oct-15 11:33N 39°17' W 076°35'0 0.0
2014-Oct-15 10:33N 39°17' W 076°35'0 0.0
2014-Oct-15 09:33N 39°17' W 076°35'0 0.0
2014-Oct-15 08:33N 39°17' W 076°35'0 0.0
2014-Oct-15 07:33N 39°17' W 076°35'0 0.0
2014-Oct-15 06:33N 39°17' W 076°35'0 0.0
2014-Oct-15 05:33N 39°17' W 076°35'0 0.0
2014-Oct-15 04:33N 39°17' W 076°35'0 0.0
2014-Oct-15 03:33N 39°17' W 076°35'0 0.0
2014-Oct-15 02:33N 39°17' W 076°35'0 0.0
2014-Oct-15 01:33N 39°17' W 076°35'0 0.0
2014-Oct-15 00:33N 39°17' W 076°35'0 0.0
2014-Oct-14 23:33N 39°17' W 076°35'0 0.0
2014-Oct-14 22:33N 39°17' W 076°35'0 0.0
2014-Oct-14 21:33N 39°17' W 076°35'0 0.0
2014-Oct-14 20:33N 39°17' W 076°35'0 0.0
2014-Oct-14 19:33N 39°17' W 076°35'0 0.0
2014-Oct-14 18:33N 39°17' W 076°35'0 0.0
2014-Oct-14 17:33N 39°17' W 076°35'0 0.0
2014-Oct-14 16:33N 39°17' W 076°35'0 0.0
2014-Oct-14 15:33N 39°17' W 076°35'0 0.0
2014-Oct-14 14:33N 39°17' W 076°35'0 0.0
2014-Oct-14 13:33N 39°17' W 076°35'0 0.0
2014-Oct-14 12:33N 39°17' W 076°35'0 0.0
2014-Oct-14 11:33N 39°17' W 076°35'0 0.0
2014-Oct-14 10:33N 39°17' W 076°35'0 0.0
2014-Oct-14 09:33N 39°17' W 076°35'0 0.0
2014-Oct-14 08:30N 39°17' W 076°35'0 0.0
2014-Oct-14 07:33N 39°17' W 076°35'0 0.0
2014-Oct-14 06:33N 39°17' W 076°35'0 0.0
2014-Oct-14 05:33N 39°17' W 076°35'0 0.0
2014-Oct-14 04:33N 39°17' W 076°35'0 0.0
2014-Oct-14 03:33N 39°17' W 076°35'0 0.0
2014-Oct-14 02:33N 39°17' W 076°35'0 0.0
2014-Oct-14 01:33N 39°17' W 076°35'0 0.0
2014-Oct-14 00:30N 39°17' W 076°35'0 0.0
2014-Oct-13 23:30N 39°17' W 076°35'0 0.0
2014-Oct-13 22:33N 39°17' W 076°35'1 1.3
2014-Oct-13 21:34N 39°15' W 076°34'0 0.3
2014-Oct-13 20:34N 39°15' W 076°34'1 1.3
2014-Oct-13 19:33N 39°17' W 076°35'3 2.5
2014-Oct-13 18:33N 39°14' W 076°33'2 2.1
2014-Oct-13 17:33N 39°13' W 076°31'3 3.4
2014-Oct-13 16:33N 39°11' W 076°27'9 4.0
2014-Oct-13 14:17N 39°04' W 076°21'3 4.3
2014-Oct-13 13:32N 39°07' W 076°20'4 3.5
2014-Oct-13 12:28N 39°10' W 076°18'71 1.9
2014-Oct-11 22:12N 39°57' W 075°08'  
Track history (hours):
 
Tides and Currents Weather Stations Pressure Air Temp Water Temp Dewpoint Dewpoint Depression Visibility Wind Speed Wind Dir Waves Ship Positions

Pride of Baltimore II (United States)

Reproduction of an 1812-era Baltimore Clipper privateer.

Ship's website: http://www.marylandspride.org/

Owner: PRIDE OF BALTIMORE INC, BALTIMORE, MD. More information available from US FCC via Universal Licensing System and Coast Guard Vessel Documentation Center.

Last reported at 2014-Oct-20 15:09 UTC. Time now 2014-Oct-21 00:41 UTC.
Position N 37°02' W 076°13'.

Type: Sailing vessel. MMSI: 303302000.

Date/timePositionNaut miles runAvg speedWind from/ knotsBaromVisibWave heightAir tempDewpointWater temp
2014-Oct-20 15:09N 37°02' W 076°13'5 7.6
2014-Oct-20 14:33N 36°60' W 076°18'5 5.1
2014-Oct-20 13:33N 36°55' W 076°20'  
2014-Oct-18 02:31N 36°50' W 076°18'6 0.8
2014-Oct-17 19:05N 36°55' W 076°20'4 7.1
2014-Oct-17 18:27N 36°60' W 076°19'6 6.9
2014-Oct-17 17:33N 37°00' W 076°11'3 2.5
2014-Oct-17 16:17N 37°03' W 076°10'2 2.1
2014-Oct-17 15:32N 37°04' W 076°11'6 4.7
2014-Oct-17 14:21N 37°10' W 076°11'6 7.5
2014-Oct-17 13:33N 37°16' W 076°11'30 7.4
2014-Oct-17 09:28N 37°46' W 076°11'8 8.3
2014-Oct-17 08:33N 37°54' W 076°11'8 8.0
2014-Oct-17 07:33N 38°01' W 076°14'8 7.9
2014-Oct-17 06:33N 38°09' W 076°17'22 7.4
2014-Oct-17 03:33N 38°31' W 076°24'5 4.6
2014-Oct-17 02:33N 38°35' W 076°25'3 3.1
2014-Oct-17 01:33N 38°38' W 076°26'0 0.2
2014-Oct-17 00:33N 38°38' W 076°26'1 1.2
2014-Oct-16 23:33N 38°39' W 076°26'3 2.8
2014-Oct-16 22:33N 38°42' W 076°26'3 3.0
2014-Oct-16 21:33N 38°45' W 076°27'3 3.3
2014-Oct-16 20:33N 38°48' W 076°27'3 2.9
2014-Oct-16 19:33N 38°51' W 076°26'5 4.0
2014-Oct-16 18:23N 38°56' W 076°25'3 3.5
2014-Oct-16 17:32N 38°59' W 076°25'0 0.5
2014-Oct-16 16:32N 38°58' W 076°25'6 5.6
2014-Oct-16 15:32N 39°04' W 076°23'6 6.3
2014-Oct-16 14:33N 39°09' W 076°25'6 6.4
2014-Oct-16 13:33N 39°13' W 076°32'4 1.7
2014-Oct-16 11:10N 39°17' W 076°35'0 0.0
2014-Oct-16 10:19N 39°17' W 076°35'0 0.0
2014-Oct-16 09:28N 39°17' W 076°35'0 0.0
2014-Oct-16 08:16N 39°17' W 076°35'0 0.0
2014-Oct-16 07:13N 39°17' W 076°35'0 0.0
2014-Oct-16 06:31N 39°17' W 076°35'0 0.0
2014-Oct-16 05:31N 39°17' W 076°35'0 0.0
2014-Oct-16 04:28N 39°17' W 076°35'0 0.0
2014-Oct-16 03:22N 39°17' W 076°35'0 0.0
2014-Oct-16 02:31N 39°17' W 076°35'0 0.0
2014-Oct-16 01:25N 39°17' W 076°35'0 0.0
2014-Oct-16 00:31N 39°17' W 076°35'0 0.0
2014-Oct-15 23:31N 39°17' W 076°35'0 0.0
2014-Oct-15 22:31N 39°17' W 076°35'0 0.0
2014-Oct-15 21:31N 39°17' W 076°35'0 0.0
2014-Oct-15 20:31N 39°17' W 076°35'0 0.0
2014-Oct-15 19:31N 39°17' W 076°35'0 0.0
2014-Oct-15 18:31N 39°17' W 076°35'0 0.0
2014-Oct-15 17:31N 39°17' W 076°35'0 0.0
2014-Oct-15 16:31N 39°17' W 076°35'0 0.0
2014-Oct-15 15:31N 39°17' W 076°35'0 0.0
2014-Oct-15 14:31N 39°17' W 076°35'0 0.0
2014-Oct-15 13:31N 39°17' W 076°35'0 0.0
2014-Oct-15 12:34N 39°17' W 076°35'0 0.0
2014-Oct-15 11:33N 39°17' W 076°35'0 0.0
2014-Oct-15 10:33N 39°17' W 076°35'0 0.0
2014-Oct-15 09:33N 39°17' W 076°35'0 0.0
2014-Oct-15 08:33N 39°17' W 076°35'0 0.0
2014-Oct-15 07:33N 39°17' W 076°35'0 0.0
2014-Oct-15 06:33N 39°17' W 076°35'0 0.0
2014-Oct-15 05:33N 39°17' W 076°35'0 0.0
2014-Oct-15 04:33N 39°17' W 076°35'0 0.0
2014-Oct-15 03:33N 39°17' W 076°35'0 0.0
2014-Oct-15 02:33N 39°17' W 076°35'0 0.0
2014-Oct-15 01:33N 39°17' W 076°35'0 0.0
2014-Oct-15 00:33N 39°17' W 076°35'0 0.0
2014-Oct-14 23:33N 39°17' W 076°35'0 0.0
2014-Oct-14 22:33N 39°17' W 076°35'0 0.0
2014-Oct-14 21:33N 39°17' W 076°35'0 0.0
2014-Oct-14 20:33N 39°17' W 076°35'0 0.0
2014-Oct-14 19:33N 39°17' W 076°35'0 0.0
2014-Oct-14 18:33N 39°17' W 076°35'0 0.0
2014-Oct-14 17:33N 39°17' W 076°35'0 0.0
2014-Oct-14 16:33N 39°17' W 076°35'0 0.0
2014-Oct-14 15:33N 39°17' W 076°35'0 0.0
2014-Oct-14 14:33N 39°17' W 076°35'0 0.0
2014-Oct-14 13:33N 39°17' W 076°35'0 0.0
2014-Oct-14 12:33N 39°17' W 076°35'0 0.0
2014-Oct-14 11:33N 39°17' W 076°35'0 0.0
2014-Oct-14 10:33N 39°17' W 076°35'0 0.0
2014-Oct-14 09:33N 39°17' W 076°35'0 0.0
2014-Oct-14 08:30N 39°17' W 076°35'0 0.0
2014-Oct-14 07:33N 39°17' W 076°35'0 0.0
2014-Oct-14 06:33N 39°17' W 076°35'0 0.0
2014-Oct-14 05:33N 39°17' W 076°35'0 0.0
2014-Oct-14 04:33N 39°17' W 076°35'0 0.0
2014-Oct-14 03:33N 39°17' W 076°35'0 0.0
2014-Oct-14 02:33N 39°17' W 076°35'0 0.0
2014-Oct-14 01:33N 39°17' W 076°35'0 0.0
2014-Oct-14 00:30N 39°17' W 076°35'0 0.0
2014-Oct-13 23:30N 39°17' W 076°35'0 0.0
2014-Oct-13 22:33N 39°17' W 076°35'1 1.3
2014-Oct-13 21:34N 39°15' W 076°34'0 0.3
2014-Oct-13 20:34N 39°15' W 076°34'1 1.3
2014-Oct-13 19:33N 39°17' W 076°35'3 2.5
2014-Oct-13 18:33N 39°14' W 076°33'2 2.1
2014-Oct-13 17:33N 39°13' W 076°31'3 3.4
2014-Oct-13 16:33N 39°11' W 076°27'9 4.0
2014-Oct-13 14:17N 39°04' W 076°21'3 4.3
2014-Oct-13 13:32N 39°07' W 076°20'4 3.5
2014-Oct-13 12:28N 39°10' W 076°18'71 1.9
2014-Oct-11 22:12N 39°57' W 075°08'  

Dump ship's entire track history